Time;durP1;ratioP1;P1;durP2;ratioP2;P2;SDS_P1;SDS_P2;PMS_P1;PMS_P2;Temp;Humidity;BMP_temperature;BMP_pressure;BME280_temperature;BME280_humidity;BME280_pressure;Samples;Min_cycle;Max_cycle;Signal;HPM_P1;HPM_P2
2023/06/26 00:01:49;;;;;;;13.57;7.70;;;;;;;-141.97;63.59;47251.94;5034203;28;20158;-82
2023/06/26 00:04:15;;;;;;;12.37;7.53;;;;;;;-141.97;63.43;47476.78;5052563;28;20166;-82
2023/06/26 00:06:41;;;;;;;14.63;7.67;;;;;;;-141.97;63.46;47501.78;5052554;28;20193;-81
2023/06/26 00:09:07;;;;;;;13.90;7.87;;;;;;;-141.97;63.42;47530.59;5052018;28;20228;-82
2023/06/26 00:11:33;;;;;;;12.00;7.67;;;;;;;-141.97;63.96;47599.81;5067413;28;20165;-83
2023/06/26 00:14:00;;;;;;;13.30;7.93;;;;;;;-141.97;63.71;47757.41;5052520;28;20157;-82
2023/06/26 00:16:25;;;;;;;13.10;7.90;;;;;;;-141.97;63.60;47720.91;5052324;28;20164;-83
2023/06/26 00:18:51;;;;;;;14.40;8.13;;;;;;;-141.97;64.29;47446.03;5054180;28;20162;-83
2023/06/26 00:21:16;;;;;;;11.60;7.30;;;;;;;-141.97;64.72;47469.09;5056110;28;20240;-82
2023/06/26 00:23:42;;;;;;;13.27;7.47;;;;;;;-141.97;64.20;47638.25;5055695;28;20185;-81
2023/06/26 00:26:09;;;;;;;13.40;7.77;;;;;;;-141.97;64.04;47361.47;5055470;28;20181;-82
2023/06/26 00:28:34;;;;;;;13.53;7.93;;;;;;;-141.97;63.99;47442.19;5055327;28;20604;-82
2023/06/26 00:31:00;;;;;;;15.27;7.70;;;;;;;-141.97;63.83;47496.00;5054472;28;20170;-82
2023/06/26 00:33:25;;;;;;;12.93;7.97;;;;;;;-141.97;64.29;47542.16;5055458;28;20303;-82
2023/06/26 00:35:51;;;;;;;12.77;7.70;;;;;;;-141.97;64.37;47401.84;5037875;28;20174;-82
2023/06/26 00:38:17;;;;;;;14.70;8.10;;;;;;;-141.97;64.70;47507.53;5055234;28;20161;-82
2023/06/26 00:40:43;;;;;;;13.50;7.63;;;;;;;-141.97;65.05;47519.06;5055135;28;20166;-83
2023/06/26 00:43:08;;;;;;;13.87;8.23;;;;;;;-141.97;64.77;47369.16;5054722;28;20165;-82
2023/06/26 00:45:34;;;;;;;12.27;7.67;;;;;;;-141.97;64.69;47674.78;5055142;28;20182;-81
2023/06/26 00:47:59;;;;;;;15.47;7.93;;;;;;;-141.97;64.59;47373.00;5055406;28;20259;-82
2023/06/26 00:50:26;;;;;;;13.00;8.23;;;;;;;-141.97;64.97;47436.44;5055256;28;20598;-82
2023/06/26 00:52:52;;;;;;;15.97;8.20;;;;;;;-141.97;65.01;47661.31;5054519;28;20213;-83
2023/06/26 00:55:17;;;;;;;12.57;8.07;;;;;;;-141.97;65.56;47478.72;5055011;28;20224;-83
2023/06/26 00:57:45;;;;;;;15.03;8.40;;;;;;;-141.97;67.32;47530.59;5037370;28;20204;-82
2023/06/26 01:00:12;;;;;;;15.60;8.57;;;;;;;-141.97;67.96;47507.53;5055157;28;20545;-83
2023/06/26 01:02:38;;;;;;;13.63;8.50;;;;;;;-141.97;68.61;47496.00;5055090;28;20165;-82
2023/06/26 01:05:06;;;;;;;13.00;8.50;;;;;;;-141.97;68.89;47553.69;5070246;28;20621;-82
2023/06/26 01:07:36;;;;;;;15.07;8.70;;;;;;;-141.97;69.56;47551.75;5054193;28;20150;-82
2023/06/26 01:10:04;;;;;;;14.67;9.20;;;;;;;-141.97;70.50;47305.75;5053557;28;20216;-83
2023/06/26 01:12:32;;;;;;;16.00;9.17;;;;;;;-141.97;70.71;47680.53;5054928;28;20189;-83
2023/06/26 01:14:58;;;;;;;13.67;8.47;;;;;;;-141.97;70.67;47559.44;5055616;28;20245;-82
2023/06/26 01:17:23;;;;;;;17.73;8.70;;;;;;;-141.97;70.85;47384.53;5054699;28;20621;-83
2023/06/26 01:19:50;;;;;;;17.20;9.00;;;;;;;-141.97;70.90;47542.16;5054895;28;20538;-83
2023/06/26 01:22:45;;;;;;;17.50;9.53;;;;;;;-141.97;71.59;47538.28;5055273;28;20158;-82
2023/06/26 01:25:41;;;;;;;14.60;8.77;;;;;;;-141.97;72.00;47567.13;5054615;28;20157;-82
2023/06/26 01:28:07;;;;;;;14.47;8.77;;;;;;;-141.97;72.07;47553.69;5054908;28;20157;-82
2023/06/26 01:30:36;;;;;;;12.60;8.63;;;;;;;-141.97;71.33;47530.59;5054121;28;20189;-82
2023/06/26 01:33:03;;;;;;;15.03;9.47;;;;;;;-141.97;72.00;47526.75;5052133;28;20185;-83
2023/06/26 01:35:28;;;;;;;16.80;9.33;;;;;;;-141.97;71.57;47676.69;5054781;28;20157;-82
2023/06/26 01:38:11;;;;;;;17.03;9.63;;;;;;;-141.97;70.81;47749.72;5036549;28;20660;-83
2023/06/26 01:40:37;;;;;;;15.03;9.40;;;;;;;-141.97;71.30;47315.34;5053315;28;20176;-83
2023/06/26 01:43:03;;;;;;;13.90;8.83;;;;;;;-141.97;71.76;47649.78;5053887;28;20161;-82
2023/06/26 01:45:31;;;;;;;16.33;9.30;;;;;;;-141.97;71.83;47530.59;5053190;28;20166;-83
2023/06/26 01:47:59;;;;;;;15.77;9.00;;;;;;;-141.97;71.62;47369.16;5054997;28;20170;-83
2023/06/26 01:50:28;;;;;;;17.57;9.87;;;;;;;-141.97;71.92;47722.81;5054137;28;20188;-83
2023/06/26 01:53:27;;;;;;;18.03;10.07;;;;;;;-141.97;71.94;47503.69;5054536;28;20182;-82
2023/06/26 01:56:16;;;;;;;16.23;9.83;;;;;;;-141.97;71.64;47561.38;4955066;29;20340;-83
2023/06/26 01:58:46;;;;;;;16.40;9.67;;;;;;;-141.97;71.66;47522.91;4878773;29;20681;-82
2023/06/26 02:01:12;;;;;;;17.50;10.13;;;;;;;-141.97;71.11;47478.72;4877799;29;20195;-82
2023/06/26 02:03:37;;;;;;;16.77;10.37;;;;;;;-141.97;71.34;47546.00;4878083;29;20274;-82
2023/06/26 02:06:02;;;;;;;15.93;10.33;;;;;;;-141.97;71.51;47588.28;4878239;29;20696;-82
2023/06/26 02:08:28;;;;;;;15.87;10.47;;;;;;;-141.97;70.95;47592.13;4877366;29;20235;-82
2023/06/26 02:10:53;;;;;;;16.93;10.70;;;;;;;-141.97;71.22;47496.00;4878324;29;20202;-83
2023/06/26 02:13:19;;;;;;;20.47;10.90;;;;;;;-141.97;71.14;47540.22;4878372;29;20223;-82
2023/06/26 02:15:44;;;;;;;17.33;10.77;;;;;;;-141.97;71.13;47540.22;4878258;29;20295;-83
2023/06/26 02:18:10;;;;;;;17.90;11.10;;;;;;;-141.97;71.41;47563.28;4879057;29;20250;-82
2023/06/26 02:20:35;;;;;;;20.33;11.73;;;;;;;-141.97;71.51;47499.84;4877507;29;20549;-82
2023/06/26 02:23:01;;;;;;;18.53;11.40;;;;;;;-141.97;71.49;47634.41;4862464;29;20680;-83
2023/06/26 02:25:26;;;;;;;21.13;11.27;;;;;;;-141.97;71.89;47411.44;4877157;29;20230;-82
2023/06/26 02:27:52;;;;;;;19.60;11.37;;;;;;;-141.97;71.51;47242.31;4862278;29;20211;-83
2023/06/26 02:30:17;;;;;;;19.10;10.80;;;;;;;-141.97;71.51;47490.25;4878122;29;20281;-82
2023/06/26 02:32:43;;;;;;;16.97;10.87;;;;;;;-141.97;71.42;47624.78;4928608;28;20216;-82
2023/06/26 02:35:08;;;;;;;19.43;10.83;;;;;;;-141.97;71.18;47755.50;4996267;28;20201;-81
2023/06/26 02:37:34;;;;;;;20.03;11.47;;;;;;;-141.97;71.65;47686.31;5053520;28;20173;-81
2023/06/26 02:39:59;;;;;;;19.13;11.43;;;;;;;-141.97;71.39;47459.50;5058222;28;20176;-82
2023/06/26 02:42:25;;;;;;;18.47;11.80;;;;;;;-141.97;71.33;47353.78;5054812;28;20187;-82
2023/06/26 02:44:50;;;;;;;17.33;11.50;;;;;;;-141.97;71.40;47559.44;5072405;28;20648;-82
2023/06/26 02:47:15;;;;;;;20.03;11.97;;;;;;;-141.97;71.13;47718.97;5071616;28;20234;-82
2023/06/26 02:49:41;;;;;;;20.07;12.03;;;;;;;-141.97;70.44;47380.69;5071824;28;20637;-82
2023/06/26 02:52:06;;;;;;;21.83;11.87;;;;;;;-141.97;69.71;47553.69;5072280;28;20239;-82
2023/06/26 02:54:32;;;;;;;21.43;11.77;;;;;;;-141.97;69.95;47561.38;5054256;28;20692;-82
2023/06/26 02:56:59;;;;;;;19.87;12.27;;;;;;;-141.97;70.01;47424.91;5071958;28;20549;-82
2023/06/26 02:59:24;;;;;;;19.70;12.17;;;;;;;-141.97;69.78;47403.75;5072243;28;20255;-81
2023/06/26 03:01:50;;;;;;;19.50;11.83;;;;;;;-141.97;69.37;47546.00;5072306;28;20261;-82
2023/06/26 03:04:17;;;;;;;20.10;12.70;;;;;;;-141.97;69.40;47661.31;5072235;28;20191;-81
2023/06/26 03:06:43;;;;;;;20.57;12.33;;;;;;;-141.97;69.81;47267.31;5072216;28;20169;-83
2023/06/26 03:09:08;;;;;;;18.80;12.27;;;;;;;-141.97;69.75;47709.38;5071975;28;20262;-83
2023/06/26 03:11:34;;;;;;;21.00;13.07;;;;;;;-141.97;69.55;47436.44;5072382;28;20180;-81
2023/06/26 03:13:59;;;;;;;20.40;13.20;;;;;;;-141.97;69.31;47546.00;5071902;28;20253;-82
2023/06/26 03:16:25;;;;;;;23.33;13.20;;;;;;;-141.97;69.51;47717.06;5071871;28;20173;-82
2023/06/26 03:18:50;;;;;;;22.90;12.83;;;;;;;-141.97;68.89;47503.69;5072206;28;20165;-82
2023/06/26 03:21:17;;;;;;;23.00;12.87;;;;;;;-141.97;68.87;47705.53;5072603;28;20168;-82
2023/06/26 03:23:42;;;;;;;20.90;12.50;;;;;;;-141.97;68.72;47709.38;5072181;28;20169;-84
2023/06/26 03:26:08;;;;;;;20.17;12.27;;;;;;;-141.97;68.57;47788.19;5072671;28;20550;-82
2023/06/26 03:28:33;;;;;;;20.40;12.47;;;;;;;-141.97;68.25;47620.94;5054327;28;20193;-81
2023/06/26 03:30:59;;;;;;;23.17;13.17;;;;;;;-141.97;68.27;47659.38;5069003;28;20172;-83
2023/06/26 03:33:24;;;;;;;22.23;13.17;;;;;;;-141.97;68.36;47505.63;5053803;28;20198;-82
2023/06/26 03:35:50;;;;;;;20.00;13.30;;;;;;;-141.97;68.62;47559.44;5070311;28;20192;-82
2023/06/26 03:38:15;;;;;;;21.47;12.90;;;;;;;-141.97;68.96;47549.84;5071740;28;20179;-82
2023/06/26 03:40:41;;;;;;;23.77;13.37;;;;;;;-141.97;68.93;47346.09;5073045;28;20169;-83
2023/06/26 03:43:06;;;;;;;20.17;13.40;;;;;;;-141.97;69.13;47594.03;5055053;28;20165;-83
2023/06/26 03:45:32;;;;;;;29.40;14.27;;;;;;;-141.97;69.17;47547.91;5072739;28;20275;-82
2023/06/26 03:47:57;;;;;;;24.63;13.67;;;;;;;-141.97;69.16;47546.00;5072418;28;20164;-82
2023/06/26 03:50:22;;;;;;;22.20;13.73;;;;;;;-141.97;68.60;47638.25;5054793;28;20168;-82
2023/06/26 03:52:49;;;;;;;22.83;13.80;;;;;;;-141.97;67.99;47499.84;5056027;28;20576;-82
2023/06/26 03:55:15;;;;;;;21.87;13.20;;;;;;;-141.97;67.84;47442.19;5076085;28;20179;-83
2023/06/26 03:57:40;;;;;;;24.07;13.07;;;;;;;-141.97;67.29;47444.13;5076259;28;20173;-81
2023/06/26 04:00:09;;;;;;;20.20;13.40;;;;;;;-141.97;67.23;47570.97;5075099;28;20169;-83
2023/06/26 04:02:35;;;;;;;22.57;13.07;;;;;;;-141.97;67.36;47484.47;5074818;28;20165;-83
2023/06/26 04:05:01;;;;;;;19.63;11.87;;;;;;;-141.97;67.42;47519.06;5057657;28;20172;-82
2023/06/26 04:07:26;;;;;;;22.30;12.30;;;;;;;-141.97;67.49;47476.78;5075966;28;20164;-82
2023/06/26 04:09:51;;;;;;;20.00;13.00;;;;;;;-141.97;67.27;47563.28;5076081;28;20227;-83
2023/06/26 04:12:17;;;;;;;20.60;12.57;;;;;;;-141.97;66.65;47765.09;5075366;28;20770;-82
2023/06/26 04:14:42;;;;;;;21.27;12.97;;;;;;;-141.97;66.77;47542.16;5058175;28;20177;-83
2023/06/26 04:17:08;;;;;;;21.40;12.80;;;;;;;-141.97;66.13;47580.59;5087018;28;20179;-82
2023/06/26 04:19:35;;;;;;;19.70;13.20;;;;;;;-141.97;65.96;47553.69;5081346;28;20165;-82
2023/06/26 04:22:01;;;;;;;19.60;13.00;;;;;;;-141.97;65.75;47561.38;5075786;28;20625;-81
2023/06/26 04:24:26;;;;;;;20.73;12.60;;;;;;;-141.97;65.72;47476.78;5075079;28;20184;-79
2023/06/26 04:26:52;;;;;;;21.33;13.20;;;;;;;-141.97;66.02;47469.09;5091388;28;20520;-83
2023/06/26 04:29:17;;;;;;;25.40;13.70;;;;;;;-141.97;65.20;47582.50;5075189;28;20652;-82
2023/06/26 04:31:46;;;;;;;23.30;13.67;;;;;;;-141.97;64.31;47544.06;5075533;28;20228;-82
2023/06/26 04:34:12;;;;;;;23.37;13.67;;;;;;;-141.97;63.98;47565.22;5075712;28;20239;-82
2023/06/26 04:36:38;;;;;;;23.80;13.57;;;;;;;-141.97;63.88;47540.22;5075083;28;20164;-82
2023/06/26 04:39:04;;;;;;;26.10;14.20;;;;;;;-141.97;63.66;47444.13;5090514;28;20190;-84
2023/06/26 04:41:30;;;;;;;22.07;12.80;;;;;;;-141.97;63.97;47722.81;5074681;28;20244;-81
2023/06/26 04:43:55;;;;;;;23.70;13.97;;;;;;;-141.97;63.75;47549.84;5074962;28;20157;-81
2023/06/26 04:46:20;;;;;;;21.83;13.67;;;;;;;-141.97;63.67;47749.72;5074866;28;20550;-83
2023/06/26 04:48:46;;;;;;;20.87;13.57;;;;;;;-141.97;62.84;47490.25;5075025;28;20225;-82
2023/06/26 04:51:12;;;;;;;22.13;13.57;;;;;;;-141.97;62.76;47346.09;5074113;28;20160;-82
2023/06/26 04:53:37;;;;;;;28.07;14.17;;;;;;;-141.97;62.78;47534.44;5074716;28;20187;-82
2023/06/26 04:56:03;;;;;;;21.00;13.63;;;;;;;-141.97;62.03;47546.00;5069699;28;20630;-83
2023/06/26 04:58:28;;;;;;;27.80;14.77;;;;;;;-141.97;61.26;47521.00;5055069;28;20185;-81
2023/06/26 05:00:53;;;;;;;21.07;13.77;;;;;;;-141.97;60.96;47442.19;5054627;28;20181;-82
2023/06/26 05:03:20;;;;;;;19.80;12.43;;;;;;;-141.97;60.42;47626.72;5053875;28;20165;-81
2023/06/26 05:05:45;;;;;;;21.80;13.73;;;;;;;-141.97;59.78;47401.84;5054390;28;20257;-81
2023/06/26 05:08:27;;;;;;;19.37;12.63;;;;;;;-141.97;59.65;47521.00;5053461;28;20233;-81
2023/06/26 05:10:58;;;;;;;21.17;12.57;;;;;;;-141.97;60.03;47567.13;5054266;28;20343;-82
2023/06/26 05:13:25;;;;;;;20.90;12.00;;;;;;;-141.97;59.89;47401.84;5053911;28;20567;-81
2023/06/26 05:15:52;;;;;;;19.77;14.40;;;;;;;-141.97;59.17;47553.69;5053877;28;20554;-80
2023/06/26 05:18:17;;;;;;;23.40;14.07;;;;;;;-141.97;58.46;47519.06;5053733;28;20606;-81
2023/06/26 05:20:43;;;;;;;20.27;13.67;;;;;;;-141.97;57.21;47501.78;5054073;28;20166;-81
2023/06/26 05:23:11;;;;;;;18.77;12.73;;;;;;;-141.97;56.97;47499.84;5053596;28;20233;-82
2023/06/26 05:25:37;;;;;;;18.27;13.30;;;;;;;-141.97;57.91;47501.78;5053827;28;20235;-82
2023/06/26 05:28:05;;;;;;;19.37;12.77;;;;;;;-141.97;57.55;47546.00;5054391;28;20162;-81
2023/06/26 05:30:31;;;;;;;19.40;11.87;;;;;;;-141.97;56.39;47534.44;5054033;28;20656;-82
2023/06/26 05:32:59;;;;;;;16.10;12.33;;;;;;;-141.97;57.61;47513.31;5053679;28;20723;-81
2023/06/26 05:35:30;;;;;;;19.97;12.43;;;;;;;-141.97;58.16;47442.19;5053926;28;20157;-81
2023/06/26 05:37:56;;;;;;;17.77;12.00;;;;;;;-141.97;57.46;47534.44;5053133;28;20180;-80
2023/06/26 05:40:22;;;;;;;16.50;13.03;;;;;;;-141.97;56.72;47490.25;5054002;28;20685;-81
2023/06/26 05:42:48;;;;;;;17.63;12.37;;;;;;;-141.97;55.84;47503.69;5051950;28;20208;-81
2023/06/26 05:45:14;;;;;;;16.80;11.37;;;;;;;-141.97;56.07;47742.03;5053521;28;20162;-84
2023/06/26 05:47:39;;;;;;;15.83;11.77;;;;;;;-141.97;56.31;47459.50;5053157;28;20169;-84
2023/06/26 05:50:06;;;;;;;15.93;11.40;;;;;;;-141.97;54.97;47492.16;5054192;28;20161;-82
2023/06/26 05:52:32;;;;;;;20.60;11.93;;;;;;;-141.97;54.47;47538.28;5052980;28;20216;-83
2023/06/26 05:54:59;;;;;;;17.65;12.35;;;;;;;-141.97;53.61;47434.50;5052835;28;20642;-81
2023/06/26 05:57:29;;;;;;;14.25;11.70;;;;;;;-141.97;53.88;47622.88;5053756;28;20581;-82
2023/06/26 05:59:55;;;;;;;16.80;11.10;;;;;;;-141.97;54.36;47530.59;5053104;28;20166;-82
2023/06/26 06:02:21;;;;;;;16.75;10.82;;;;;;;-141.97;52.89;47732.44;5053038;28;20249;-83
2023/06/26 06:04:46;;;;;;;18.10;11.95;;;;;;;-141.97;52.99;47524.84;5052958;28;20246;-82
2023/06/26 06:07:12;;;;;;;16.55;11.10;;;;;;;-141.97;52.44;47480.63;5068404;28;20182;-82
2023/06/26 06:09:37;;;;;;;14.82;11.15;;;;;;;-141.97;52.74;47505.63;5051278;28;20279;-83
2023/06/26 06:12:05;;;;;;;16.33;11.30;;;;;;;-141.97;53.07;47484.47;5052651;28;20210;-83
2023/06/26 06:14:31;;;;;;;16.88;10.82;;;;;;;-141.97;53.46;47323.03;5052788;28;20631;-83
2023/06/26 06:16:56;;;;;;;18.65;11.38;;;;;;;-141.97;52.79;47519.06;5052512;28;20159;-82
2023/06/26 06:19:22;;;;;;;13.60;10.93;;;;;;;-141.97;53.42;47730.50;5052384;28;20163;-82
2023/06/26 06:21:48;;;;;;;13.45;10.25;;;;;;;-141.97;54.12;47753.56;5052517;28;20176;-83
2023/06/26 06:24:13;;;;;;;16.77;11.20;;;;;;;-141.97;54.97;47407.59;5052892;28;20683;-82
2023/06/26 06:26:39;;;;;;;16.33;11.30;;;;;;;-141.97;55.60;47438.34;5052682;28;20166;-83
2023/06/26 06:29:04;;;;;;;14.20;11.07;;;;;;;-141.97;55.08;47717.06;5052705;28;20246;-83
2023/06/26 06:31:30;;;;;;;14.00;10.98;;;;;;;-141.97;55.54;47703.59;5052812;28;20198;-82
2023/06/26 06:33:55;;;;;;;19.38;12.90;;;;;;;-141.97;54.38;47388.38;5051699;28;20255;-82
2023/06/26 06:36:21;;;;;;;14.53;10.27;;;;;;;-141.97;54.84;47496.00;5051213;28;20177;-82
2023/06/26 06:38:46;;;;;;;15.23;10.23;;;;;;;-141.97;54.05;47524.84;5052203;28;20189;-85
2023/06/26 06:41:12;;;;;;;12.87;10.10;;;;;;;-141.97;53.70;47496.00;5052374;28;20177;-83
2023/06/26 06:43:38;;;;;;;14.73;10.53;;;;;;;-141.97;53.94;47399.91;5051690;28;20293;-82
2023/06/26 06:46:04;;;;;;;19.10;14.30;;;;;;;-141.97;52.89;47261.53;5052545;28;20618;-82
2023/06/26 06:48:29;;;;;;;18.20;11.13;;;;;;;-141.97;52.83;47628.63;5052411;28;20173;-82
2023/06/26 06:50:54;;;;;;;22.60;15.48;;;;;;;-141.97;51.65;47499.84;5052338;28;20160;-84
2023/06/26 06:53:20;;;;;;;12.13;9.38;;;;;;;-141.97;51.39;47507.53;5051763;28;20197;-83
2023/06/26 06:55:46;;;;;;;13.98;9.63;;;;;;;-141.97;51.82;47232.72;5053484;28;20573;-82
2023/06/26 06:58:12;;;;;;;12.20;8.90;;;;;;;-141.97;50.61;47757.41;5052530;28;20530;-83
2023/06/26 07:00:37;;;;;;;12.15;8.65;;;;;;;-141.97;51.01;47446.03;5059546;28;20539;-84
2023/06/26 07:03:03;;;;;;;14.05;9.13;;;;;;;-141.97;51.15;47605.56;5055950;28;20169;-82
2023/06/26 07:05:28;;;;;;;11.77;8.65;;;;;;;-141.97;50.81;47378.78;5052209;28;20175;-82
2023/06/26 07:07:53;;;;;;;17.85;12.55;;;;;;;-141.97;49.69;47469.09;5051819;28;20176;-83
2023/06/26 07:10:19;;;;;;;11.38;9.30;;;;;;;-141.97;49.48;47549.84;5050707;28;20609;-83
2023/06/26 07:12:44;;;;;;;13.43;9.48;;;;;;;-141.97;49.16;47720.91;5052149;28;20280;-83
2023/06/26 07:15:10;;;;;;;14.25;9.32;;;;;;;-141.97;49.42;47417.22;5052173;28;20238;-83
2023/06/26 07:17:37;;;;;;;17.98;9.88;;;;;;;-141.97;49.48;47342.25;5052334;28;20226;-84
2023/06/26 07:20:06;;;;;;;12.02;8.98;;;;;;;-141.97;49.74;47301.91;5052362;28;20158;-82
2023/06/26 07:22:31;;;;;;;11.88;8.70;;;;;;;-141.97;49.88;47690.16;5052170;28;20168;-81
2023/06/26 07:24:57;;;;;;;12.50;8.70;;;;;;;-141.97;49.85;47226.94;5051785;28;20163;-82
2023/06/26 07:27:22;;;;;;;12.75;8.82;;;;;;;-141.97;49.75;47340.34;5050818;28;20682;-83
2023/06/26 07:29:48;;;;;;;11.02;8.80;;;;;;;-141.97;48.66;47711.28;5052241;28;20166;-83
2023/06/26 07:32:13;;;;;;;11.68;9.13;;;;;;;-141.97;48.55;47376.84;5051145;28;21232;-83
2023/06/26 07:34:38;;;;;;;20.25;14.70;;;;;;;-141.97;47.83;47482.56;5051437;28;20180;-83
2023/06/26 07:37:04;;;;;;;14.60;8.75;;;;;;;-141.97;45.28;47430.66;5051522;28;20182;-82
2023/06/26 07:39:30;;;;;;;16.23;8.88;;;;;;;-141.97;45.06;47526.75;5067170;28;20563;-84
2023/06/26 07:41:55;;;;;;;11.18;8.35;;;;;;;-141.97;44.61;47651.69;5052285;28;20161;-82
2023/06/26 07:44:21;;;;;;;12.88;9.82;;;;;;;-141.97;43.32;47440.28;5051851;28;20594;-83
2023/06/26 07:46:47;;;;;;;14.15;10.05;;;;;;;-141.97;42.74;47428.75;5051273;28;20179;-83
2023/06/26 07:49:12;;;;;;;13.20;9.32;;;;;;;-141.97;42.83;47319.19;5051645;28;20165;-83
2023/06/26 07:51:38;;;;;;;12.13;8.82;;;;;;;-141.97;43.00;47380.69;5052038;28;20166;-82
2023/06/26 07:54:03;;;;;;;15.82;8.75;;;;;;;-141.97;43.40;47484.47;5049879;28;20218;-82
2023/06/26 07:56:29;;;;;;;15.45;9.20;;;;;;;-141.97;43.50;47365.31;5051005;28;20519;-83
2023/06/26 07:58:54;;;;;;;11.45;8.18;;;;;;;-141.97;44.97;47428.75;5049821;28;20173;-83
2023/06/26 08:01:20;;;;;;;11.70;8.23;;;;;;;-141.97;45.40;47626.72;5049719;28;20180;-83
2023/06/26 08:03:45;;;;;;;12.88;8.70;;;;;;;-141.97;45.61;47324.97;5051622;28;20161;-83
2023/06/26 08:06:10;;;;;;;11.07;8.13;;;;;;;-141.97;46.09;47592.13;5050223;28;20192;-83
2023/06/26 08:08:36;;;;;;;11.25;8.32;;;;;;;-141.97;45.80;47682.47;5054700;28;20232;-82
2023/06/26 08:11:01;;;;;;;18.23;13.70;;;;;;;-141.97;45.79;47457.56;5071317;28;20242;-83
2023/06/26 08:13:27;;;;;;;14.43;9.88;;;;;;;-141.97;45.08;47440.28;5071287;28;20198;-83
2023/06/26 08:15:52;;;;;;;12.02;9.68;;;;;;;-141.97;46.40;47411.44;5071970;28;20171;-82
2023/06/26 08:18:18;;;;;;;12.70;9.82;;;;;;;-141.97;46.45;47461.41;5071083;28;20164;-83
2023/06/26 08:20:44;;;;;;;13.38;9.45;;;;;;;-141.97;48.15;47555.59;5052538;28;20179;-82
2023/06/26 08:23:09;;;;;;;14.15;9.57;;;;;;;-141.97;52.11;47507.53;5053076;28;20172;-81
2023/06/26 08:25:35;;;;;;;16.55;9.63;;;;;;;-141.97;50.77;47449.88;5053271;28;20267;-82
2023/06/26 08:28:00;;;;;;;11.98;8.93;;;;;;;-141.97;50.38;47728.59;5070875;28;20179;-84
2023/06/26 08:30:27;;;;;;;13.30;9.23;;;;;;;-141.97;49.33;47642.09;5079382;28;20183;-83
2023/06/26 08:32:56;;;;;;;13.98;9.23;;;;;;;-141.97;51.62;47374.94;5073939;28;20194;-83
2023/06/26 08:35:22;;;;;;;12.73;9.02;;;;;;;-141.97;53.97;47401.84;5073352;28;20164;-82
2023/06/26 08:37:47;;;;;;;13.63;8.85;;;;;;;-141.97;54.57;47378.78;5071685;28;20243;-83
2023/06/26 08:40:17;;;;;;;11.93;8.40;;;;;;;-141.97;54.28;47461.41;5075401;28;20183;-82
2023/06/26 08:42:42;;;;;;;15.05;8.93;;;;;;;-141.97;52.80;47411.44;5076863;28;20164;-82
2023/06/26 08:45:08;;;;;;;13.73;9.10;;;;;;;-141.97;53.76;47615.19;5062382;28;20620;-82
2023/06/26 08:47:34;;;;;;;11.40;8.90;;;;;;;-141.97;53.15;47342.25;5053538;28;20181;-83
2023/06/26 08:50:12;;;;;;;11.88;9.00;;;;;;;-141.97;53.38;47503.69;5057495;28;20571;-83
2023/06/26 08:52:54;;;;;;;12.27;8.10;;;;;;;-141.97;48.05;47715.13;5057251;28;20194;-83
2023/06/26 08:55:24;;;;;;;11.80;7.40;;;;;;;-141.97;45.38;47303.81;5054478;28;20170;-83
2023/06/26 08:57:50;;;;;;;12.73;8.57;;;;;;;-141.97;48.41;47438.34;5054300;28;20164;-82
2023/06/26 09:00:17;;;;;;;14.07;9.48;;;;;;;-141.97;47.94;47457.56;5053805;28;20174;-83
2023/06/26 09:02:43;;;;;;;14.63;10.40;;;;;;;-141.97;45.63;47403.75;5054229;28;20184;-83
2023/06/26 09:05:09;;;;;;;14.68;10.38;;;;;;;-141.97;44.79;47346.09;5054338;28;20163;-83
2023/06/26 09:07:35;;;;;;;13.48;9.25;;;;;;;-141.97;41.16;47661.31;5054220;28;20273;-82
2023/06/26 09:10:00;;;;;;;12.65;8.80;;;;;;;-141.97;41.23;47422.97;5053958;28;20309;-83
2023/06/26 09:12:27;;;;;;;12.40;8.23;;;;;;;-141.97;40.47;47411.44;5053929;28;20195;-83
2023/06/26 09:14:55;;;;;;;11.00;7.80;;;;;;;-141.97;40.22;47380.69;5053993;28;20190;-83
2023/06/26 09:17:24;;;;;;;11.50;7.25;;;;;;;-141.97;41.63;47611.34;5054772;28;20168;-83
2023/06/26 09:19:50;;;;;;;9.25;7.05;;;;;;;-141.97;43.34;47707.44;5054276;28;20215;-84
2023/06/26 09:22:16;;;;;;;13.30;11.27;;;;;;;-141.97;44.01;47342.25;5055453;28;20524;-83
2023/06/26 09:24:43;;;;;;;11.23;8.80;;;;;;;-141.97;42.78;47376.84;5060028;28;20158;-83
2023/06/26 09:27:09;;;;;;;15.32;8.10;;;;;;;-141.97;46.09;47353.78;5053645;28;20571;-83
2023/06/26 09:29:35;;;;;;;15.75;9.48;;;;;;;-141.97;50.52;47461.41;5054049;28;20179;-83
2023/06/26 09:32:00;;;;;;;15.02;10.32;;;;;;;-141.97;53.93;47590.19;5053930;28;20237;-83
2023/06/26 09:34:33;;;;;;;14.95;9.88;;;;;;;-141.97;55.47;47492.16;5054023;28;20164;-83
2023/06/26 09:37:02;;;;;;;15.32;9.98;;;;;;;-141.97;55.29;47501.78;5053810;28;20244;-83
2023/06/26 09:39:30;;;;;;;13.82;9.70;;;;;;;-141.97;55.99;47486.41;5053647;28;20164;-82
2023/06/26 09:41:57;;;;;;;13.18;9.35;;;;;;;-141.97;55.81;47546.00;5068991;28;20655;-82
2023/06/26 09:44:23;;;;;;;12.05;8.73;;;;;;;-141.97;55.98;47449.88;5053650;28;20161;-82
2023/06/26 09:46:48;;;;;;;14.18;8.80;;;;;;;-141.97;56.95;47497.94;5054116;28;20193;-82
2023/06/26 09:49:14;;;;;;;18.67;12.23;;;;;;;-141.97;58.85;47426.81;5053783;28;20162;-83
2023/06/26 09:51:41;;;;;;;14.90;8.05;;;;;;;-141.97;59.25;47438.34;5053023;28;20223;-83
2023/06/26 09:54:07;;;;;;;10.85;7.60;;;;;;;-141.97;61.49;47469.09;5053463;28;20204;-81
2023/06/26 09:56:33;;;;;;;10.57;7.88;;;;;;;-141.97;62.64;47250.00;5054138;28;20384;-83
2023/06/26 09:59:05;;;;;;;15.85;8.38;;;;;;;-141.97;62.00;47586.34;5053694;28;20199;-84
2023/06/26 10:01:31;;;;;;;19.42;9.30;;;;;;;-141.97;61.63;47461.41;5053743;28;20168;-84
2023/06/26 10:03:57;;;;;;;16.38;10.90;;;;;;;-141.97;62.69;47509.47;5054278;28;20175;-83
2023/06/26 10:06:35;;;;;;;16.10;10.27;;;;;;;-141.97;64.00;47540.22;5054537;28;20190;-84
2023/06/26 10:09:02;;;;;;;15.30;9.50;;;;;;;-141.97;64.77;47607.50;5035763;28;20223;-83
2023/06/26 10:11:38;;;;;;;13.38;8.98;;;;;;;-141.97;61.00;47513.31;5052327;28;20633;-83
2023/06/26 10:14:05;;;;;;;17.25;9.32;;;;;;;-141.97;60.65;47519.06;5058860;28;20194;-84
2023/06/26 10:16:32;;;;;;;13.30;8.77;;;;;;;-141.97;60.28;47463.34;5054500;28;20180;-84
2023/06/26 10:19:02;;;;;;;14.00;9.25;;;;;;;-141.97;61.16;47492.16;5054184;28;20157;-84
2023/06/26 10:21:30;;;;;;;11.70;8.43;;;;;;;-141.97;57.33;47538.28;5053726;28;20197;-84
2023/06/26 10:23:57;;;;;;;12.27;8.70;;;;;;;-141.97;57.61;47517.16;5053798;28;20165;-84
2023/06/26 10:26:24;;;;;;;15.30;8.85;;;;;;;-141.97;56.97;47444.13;5052240;28;20188;-84
2023/06/26 10:28:52;;;;;;;11.02;8.93;;;;;;;-141.97;57.08;47469.09;5052021;28;20202;-85
2023/06/26 10:31:26;;;;;;;11.52;8.95;;;;;;;-141.97;55.38;47388.38;5053240;28;20160;-84
2023/06/26 10:33:52;;;;;;;12.10;8.65;;;;;;;-141.97;53.00;47724.75;5053073;28;20190;-83
2023/06/26 10:36:28;;;;;;;11.95;9.55;;;;;;;-141.97;54.93;47565.22;5052530;28;20206;-83
2023/06/26 10:39:05;;;;;;;12.85;10.20;;;;;;;-141.97;55.18;47378.78;5034968;28;20259;-83
2023/06/26 10:41:42;;;;;;;13.55;11.00;;;;;;;-141.97;54.02;47684.38;5052934;28;20169;-84
2023/06/26 10:44:09;;;;;;;10.75;8.20;;;;;;;-141.97;50.37;47469.09;5053062;28;20151;-84
2023/06/26 10:46:52;;;;;;;9.13;7.22;;;;;;;-141.97;47.19;47446.03;5053125;28;20238;-84
2023/06/26 10:49:19;;;;;;;12.32;7.53;;;;;;;-141.97;43.81;47469.09;5056671;28;20147;-83
2023/06/26 10:51:49;;;;;;;10.20;6.75;;;;;;;-141.97;43.99;47457.56;5076563;28;20201;-83
2023/06/26 10:54:16;;;;;;;10.10;7.00;;;;;;;-141.97;42.74;47472.94;5076673;28;20191;-84
2023/06/26 10:56:42;;;;;;;11.82;7.30;;;;;;;-141.97;42.66;47407.59;5057108;28;20256;-84
2023/06/26 10:59:18;;;;;;;8.85;6.95;;;;;;;-141.97;43.25;47134.69;5052361;28;20192;-84
2023/06/26 11:01:47;;;;;;;10.75;7.15;;;;;;;-141.97;41.93;47449.88;5051841;28;20165;-85
2023/06/26 11:04:16;;;;;;;17.83;11.00;;;;;;;-141.97;39.54;47373.00;5052075;28;20165;-83